Accueil
METAR-TAF:

METAR-TAF

Aéroports :

Aéroport de Gênes-Christophe Colomb

Gênes, Italie

latitude: 44-25N, longitude: 008-51E, altitude: 2 m

Observation

Le bulletin a été fait il y a 39 minutes, à 00:50 UTC
Vent 8 kt de nord-est, variant entre nord/nord-est et est
Température 18°C
Humidité 64%
Pression 1014 hPa
Visibilité 10 km ou plus
Quelques nuages à une hauteur de 3500 ft

METAR: LIMJ 210050Z 05008KT 020V080 9999 FEW035 18/11 Q1014

Heure: 03:29 (01:29 UTC)

Prévision

Le bulletin a été fait il y a 2 heures et 29 minutes, à 23:00 UTC
Prévision valable du 21 à 00 UTC au 21 à 24 UTC
Vent 15 kt de nord/nord-est
Visibilité 10 km ou plus
Nuages épars à une hauteur de 3000 ft
Temporairement
du 21 à 12 UTC au 21 à 18 UTC
Visibilité: 4000 m
orage, pluie

TAF: LIMJ 202300Z 2100/2124 03015KT 9999 SCT030 TEMPO 2112/2118 4000 TSRA

Observations et prévisions météorologiques de plus de 4000 aéroports (messages METAR et TAF).

Les stations disponibles sont représentées par des disques jaunes et rouges sur la carte.

Passer la souris dessus pour voir le nom de la station.

Cliquer dessus pour voir les observations et prévisions météorologiques.

Pour changer de carte: cliquez sur les boutons verts avec une croix noire pour zoomer, sur le bouton vert avec un tiret pour effectuer un zoom arrière, ou sur les flèches vertes pour les cartes adjacentes.


METAR-TAF: